METAR / TAF

METAR / TAF
Aktuelle Wetterdaten für Piloten (ohne Gewähr!)


Available data for LSZB from the past 2 hours
BERN/BELP
Metar
LSZB 180420Z VRB02KT 9999 BKN023 15/15 Q1021 NOSIG

04:20 UTC

Wind: ° 2kt

Visibility: 9999 m

Sky: BKN 2300 ft

Temp: 15 deg C / 59 deg F

Dewpoint: 15 deg C / 59 deg F

Pressure: 1021 hPa

TAF
TAF LSZB 180225Z 1803/1812 VRB03KT 9999 FEW040 SCT140

Available data for LSGS from the past 2 hours
SION (MIL/CIV/AU
Metar
LSGS 180420Z AUTO VRB01KT 9999 BKN036 15/13 Q1021

04:20 UTC

Wind: ° 1kt

Visibility: 9999 m

Sky: BKN 3600 ft

Temp: 15 deg C / 59 deg F

Dewpoint: 13 deg C / 55.4 deg F

Pressure: 1021 hPa

TAF
TAF LSGS 180225Z 1803/1812 VRB03KT CAVOK BECMG 1810/1812 27015KT 9999 FEW050

Available data for LSZG from the past 2 hours
GRENCHEN
Metar
LSZG 180420Z AUTO 03004KT 3500 BR BKN001 BKN050 16/16 Q1021

04:20 UTC

Wind: 30° 4kt

Visibility: 3500 m

Sky: BKN 100 ft

Temp: 16 deg C / 60.8 deg F

Dewpoint: 16 deg C / 60.8 deg F

Pressure: 1021 hPa


Available data for LSMP from the past 2 hours
PAYERNE (MIL/AUT
Metar
LSMP 180420Z AUTO 00000KT 9999NDV FEW010 BKN045 15/14 Q1021 RMK

Available data for LSZA from the past 2 hours
LUGANO (PVT/AUT)
Metar
LSZA 180420Z VRB02KT 9999 FEW075 19/16 Q1018 NOSIG

04:20 UTC

Wind: ° 2kt

Visibility: 9999 m

Sky: FEW 7500 ft

Temp: 19 deg C / 66.2 deg F

Dewpoint: 16 deg C / 60.8 deg F

Pressure: 1018 hPa

TAF
TAF LSZA 180225Z 1803/1812 VRB03KT 9999 FEW050

Available data for LSZS from the past 2 hours
SAMEDAN
Metar
LSZS 180420Z AUTO 11001KT 9999 BKN006 SCT011 11/10 Q1025

04:20 UTC

Wind: 110° 1kt

Visibility: 9999 m

Sky: BKN 600 ft

Temp: 11 deg C / 51.8 deg F

Dewpoint: 10 deg C / 50 deg F

Pressure: 1025 hPa